الصفحة الرئيسية
METAR-TAF:

METAR-TAF

مطار :

أوسكمان, كازاخستان

دائرة عرض: 50-02-10N, خط طول: 082-29-39E, ارتفاع: 286 متر

مراقبة الطقس الحالي

تاريخ ووقت الإصدار 34 دقيقة قبل الساعة 00:00UTC
رياح هادئة
درجة الحرارة 1°درجة مئوية
الرطوبة 93%
ضغط 1024 hPa
الرؤية 10 كم أو أكثر
غيوم مفككة على ارتفاع 3800 قدم, مزنة ركامية.
ملبد بالغيوم على ارتفاع 6900 قدم

METAR: UASK 170000Z 00000MPS 9999 BKN038CB OVC069 01/M00 Q1024 R12/090060 NOSIG RMK QFE742/0990

زمن: 06:34 (00:34 UTC)

توقعات

تاريخ ووقت الإصدار 1ساعة و 28 دقيقة قبل الساعة 23:06UTC
التوقعات صالحة من17 الساعة 00 UTC إلى 17 الساعة 09 UTC
ريح 10 عقدة من الجنوب/الجنوب الغربي تتزايد حتى 19 عقدة
الرؤية 10 كم أو أكثر
غيوم متفرقة على ارتفاع 3300 قدم, مزنة ركامية.
غيوم مفككة على ارتفاع 7000 قدم
مؤقت
من 17 الساعة 00 UTC إلى 17 الساعة 06 UTC
ريح 10 عقدة من الجنوب الشرقي
الرؤية: 3000 متر
غيوم متفرقة على ارتفاع 400 قدم
غيوم مفككة على ارتفاع 1500 قدم, مزنة ركامية.
زخات من الأمطار الخفيفة, ثلوج, غشاء

TAF: UASK 162306Z 1700/1709 21005G10MPS 9999 SCT033CB BKN070 TEMPO 1700/1706 14005MPS 3000 -SHRASN BR SCT004 BKN015CB

أرصاد الطقس والتوقعات من أكثر من 4000 مطار (تقارير الطقس للمطار METAR والتنبؤ بالطقس بالمطارTAF).

المحطات المتاحة هي النقط الصفراء والحمراء على الخريطة.

حرك المؤشر فوق النقطة لمعرفة اسم المحطة.

ثم انقر لمعرفة أرصاد وتوقعات الطقس.

لتغيير الخارطة: اضغط على الأزرار الخضراء مع رمز الصليب الأسود للتكبير. على الزر الأخضر مع شرطة للتصغير، أو على الأسهم الخضراء للخرائط المجاورة.


METAR-TAF: